NCAR-RAP Real-Time Weather Data

Output produced by METARs form (23 January 2018  15:46 UTC)
found at http://weather.rap.ucar.edu/surface/
 
RJBD 231000Z 35009KT 9999 FEW030 04/M01 Q1013
RJBD 230900Z 36011KT 9999 FEW030 05/01 Q1013
RJBD 230800Z 33019KT 9999 FEW030 SCT070 07/M01 Q1012
RJBD 230700Z 33020G32KT 300V360 9999 FEW035 SCT070 BKN100 08/M01 Q1011
RJBD 230600Z 33020G30KT 9999 FEW035 SCT090 09/M00 Q1011
RJBD 230500Z 32020G30KT 9999 FEW035 SCT080 10/M01 Q1010
RJBD 230400Z 31014G24KT 9999 FEW035 11/M01 Q1010
RJBD 230300Z 31012KT 9999 FEW035 11/M00 Q1011
RJBD 230200Z 33008KT 290V030 9999 FEW035 SCT050 11/06 Q1011
RJBD 230100Z 34004KT 320V020 9999 FEW030 SCT040 BKN050 07/05 Q1012
RJBD 230000Z 34004KT 9999 FEW030 SCT050 07/04 Q1011
RJBD 222300Z VRB01KT 9999 FEW030 SCT050 04/02 Q1011
RJBD 222240Z VRB02KT 9999 FEW030 SCT050 03/01 Q1012 RMK 1CU030 3SC050 A2988
RJBD 221000Z 33012KT 9999 FEW008 SCT060 BKN070 04/03 Q1009
RJBD 220900Z 32012KT 9999 -SHRA FEW004 SCT008 BKN015 05/04 Q1009
RJBD 220810Z 33006KT 5000 -SHRA BR FEW002 SCT004 BKN006 06/05 Q1008 RMK 1ST002 3ST004 5ST006 A2979
RJBD 220800Z 33005KT 7000 -SHRA FEW002 SCT006 BKN040 06/05 Q1008
RJBD 220700Z 34010KT 6000 SHRA FEW008 SCT030 BKN040 05/04 Q1007
RJBD 220600Z 34009KT 310V020 9999 -RA FEW008 SCT035 BKN050 05/04 Q1006
RJBD 220500Z 01005KT 330V040 9999 -RA FEW008 SCT030 BKN050 05/04 Q1008
RJBD 220400Z 04005KT 350V090 9999 -RA FEW010 SCT030 BKN045 06/03 Q1009
RJBD 220300Z 08004KT 040V110 9999 -RA FEW015 SCT030 BKN045 07/03 Q1011
RJBD 220200Z 08003KT 050V130 9999 -RA FEW015 SCT040 BKN050 08/02 Q1013
RJBD 220100Z 04006KT 9999 FEW040 SCT060 BKN090 07/M00 Q1013
RJBD 220000Z 05007KT 9999 FEW040 BKN100 07/M01 Q1014
RJBD 212300Z VRB01KT 9999 FEW040 BKN110 07/M02 Q1014
RJBD 212240Z VRB01KT 9999 FEW040 BKN120 06/M02 Q1014 RMK 1CU040 7AC120 A2996
RJBD 211000Z 34011KT 9999 FEW035 SCT/// 08/00 Q1019
RJBD 210900Z 34014KT 9999 FEW035 BKN/// 09/00 Q1019
RJBD 210800Z 34011KT 9999 FEW035 SCT/// 09/00 Q1018
RJBD 210700Z 34011KT 9999 FEW035 SCT/// 11/M00 Q1017
RJBD 210600Z 34015KT 9999 FEW035 11/M01 Q1017
RJBD 210500Z 32017KT 9999 FEW035 12/M02 Q1017
RJBD 210400Z 32015KT 9999 FEW040 SCT/// 12/M01 Q1018